Terminal Aerodrome Forecast
Issued by NWS

Home | Current Version | Previous Version | Text Only | Print | Product List | Glossary Off
Versions: 1 2 3 4 5 6 7 8 9 10 11 12 13 14 15 16 17 18 19 20 21 22 23 24 25 26 27 28 29 30 31 32 33 34 35 36 37

000
FTUS43 KLOT 192240 AAB
TAFORD
TAF AMD
KORD 192240Z 1923/2024 07009KT P6SM FEW040 SCT250
     FM200200 11005KT 6SM -SHRA VCTS SCT040 BKN100CB
     FM200400 15005KT P6SM SCT100 BKN250 PROB30 2010/2014 33015G25KT
      3SM TSRA SCT020 OVC060CB
     FM201400 22010KT P6SM VCSH SCT040 BKN250
     FM201900 30010KT P6SM SCT040 PROB30 2019/2024 4SM TSRA
      BKN040CB=

USA.gov is the U.S. government's official web portal to all federal, state and local government web resources and services.